createdAt,value
2019-04-10T00:02:07.789Z,9.65
2019-04-10T00:04:37.395Z,9.61
2019-04-10T00:07:14.249Z,9.67
2019-04-10T00:09:39.226Z,9.68
2019-04-10T00:12:09.570Z,9.80
2019-04-10T00:14:39.106Z,9.86
2019-04-10T00:17:08.989Z,9.80
2019-04-10T00:19:38.562Z,9.78
2019-04-10T00:22:08.057Z,9.70
2019-04-10T00:24:37.857Z,9.71
2019-04-10T00:27:07.420Z,9.82
2019-04-10T00:29:36.939Z,9.74
2019-04-10T00:32:06.435Z,9.79
2019-04-10T00:34:36.005Z,9.84
2019-04-10T00:37:05.874Z,9.72
2019-04-10T00:39:35.357Z,9.84
2019-04-10T00:42:05.098Z,9.81
2019-04-10T00:44:35.445Z,9.95
2019-04-10T00:47:06.530Z,9.91
2019-04-10T00:49:36.074Z,9.83
2019-04-10T00:52:05.992Z,9.82
2019-04-10T00:54:35.621Z,9.75
2019-04-10T00:57:05.290Z,9.59
2019-04-10T00:59:34.796Z,9.53
2019-04-10T01:02:04.642Z,9.48
2019-04-10T01:04:34.196Z,9.57
2019-04-10T01:07:04.327Z,9.47
2019-04-10T01:09:33.843Z,9.45
2019-04-10T01:12:03.621Z,9.43
2019-04-10T01:14:33.942Z,9.38
2019-04-10T01:17:04.083Z,9.21
2019-04-10T01:19:34.351Z,9.23
2019-04-10T01:22:03.893Z,9.17
2019-04-10T01:24:33.513Z,9.15
2019-04-10T01:27:03.416Z,9.05
2019-04-10T01:29:33.608Z,8.93
2019-04-10T01:32:03.657Z,8.90
2019-04-10T01:34:33.689Z,8.85
2019-04-10T01:37:03.286Z,8.74
2019-04-10T01:39:34.665Z,8.65
2019-04-10T01:42:04.217Z,8.60
2019-04-10T01:44:33.710Z,8.50
2019-04-10T01:47:03.207Z,8.43
2019-04-10T01:49:33.587Z,8.36
2019-04-10T01:52:03.083Z,8.33
2019-04-10T01:54:33.274Z,8.30
2019-04-10T01:57:02.839Z,8.11
2019-04-10T01:59:34.093Z,8.11
2019-04-10T02:02:05.299Z,8.12
2019-04-10T02:04:35.175Z,8.15
2019-04-10T02:07:05.582Z,8.07
2019-04-10T02:09:35.138Z,7.91
2019-04-10T02:12:04.642Z,7.98
2019-04-10T02:14:34.310Z,7.97
2019-04-10T02:17:04.277Z,7.95
2019-04-10T02:19:34.374Z,7.91
2019-04-10T02:22:04.383Z,7.85
2019-04-10T02:24:33.931Z,7.80
2019-04-10T02:27:03.432Z,7.80
2019-04-10T02:29:33.567Z,7.71
2019-04-10T02:32:04.116Z,7.66
2019-04-10T02:34:33.770Z,7.64
2019-04-10T02:37:03.289Z,7.57
2019-04-10T02:39:39.715Z,7.59
2019-04-10T02:42:04.156Z,7.51
2019-04-10T02:44:35.385Z,7.50
2019-04-10T02:47:06.318Z,7.54
2019-04-10T02:49:36.445Z,7.56
2019-04-10T02:52:06.641Z,7.55
2019-04-10T02:54:37.534Z,7.44
2019-04-10T02:57:07.508Z,7.28
2019-04-10T02:59:37.578Z,7.15
2019-04-10T03:02:08.606Z,7.22
2019-04-10T03:04:38.345Z,7.08
2019-04-10T03:07:09.489Z,7.01
2019-04-10T03:09:53.651Z,6.95
2019-04-10T03:12:12.221Z,6.90
2019-04-10T03:14:45.239Z,6.87
2019-04-10T03:17:12.861Z,7.05
2019-04-10T03:19:43.455Z,6.97
2019-04-10T03:22:13.010Z,6.85
2019-04-10T03:24:42.495Z,6.77
2019-04-10T03:27:12.330Z,6.71
2019-04-10T03:29:42.260Z,6.67
2019-04-10T03:32:34.822Z,6.59
2019-04-10T03:35:06.160Z,6.54
2019-04-10T03:37:36.159Z,6.55
2019-04-10T03:40:07.086Z,6.46
2019-04-10T03:42:37.102Z,6.40
2019-04-10T03:45:07.605Z,6.32
2019-04-10T03:47:37.669Z,6.32
2019-04-10T03:50:08.657Z,6.24
2019-04-10T03:52:38.318Z,6.23
2019-04-10T03:55:08.506Z,6.20
2019-04-10T03:57:38.555Z,6.14
2019-04-10T04:00:08.348Z,6.05
2019-04-10T04:02:38.142Z,6.02
2019-04-10T04:05:08.589Z,6.15
2019-04-10T04:07:38.880Z,6.22
2019-04-10T04:10:09.435Z,6.24
2019-04-10T04:12:39.233Z,6.29
2019-04-10T04:15:09.520Z,6.40
2019-04-10T04:17:40.066Z,6.23
2019-04-10T04:20:10.779Z,6.13
2019-04-10T04:22:41.120Z,6.09
2019-04-10T04:25:10.944Z,6.04
2019-04-10T04:27:40.440Z,6.03
2019-04-10T04:30:10.559Z,6.02
2019-04-10T04:32:40.130Z,6.20
2019-04-10T04:35:09.723Z,6.27
2019-04-10T04:37:39.229Z,6.11
2019-04-10T04:40:11.107Z,6.13
2019-04-10T04:42:40.762Z,6.01
2019-04-10T04:45:10.875Z,5.89
2019-04-10T04:47:41.255Z,5.79
2019-04-10T04:50:11.899Z,5.74
2019-04-10T04:52:41.489Z,5.67
2019-04-10T04:55:12.106Z,5.60
2019-04-10T04:57:42.296Z,5.54
2019-04-10T05:00:13.096Z,5.47
2019-04-10T05:02:42.748Z,5.51
2019-04-10T05:05:12.382Z,5.43
2019-04-10T05:07:41.884Z,5.36
2019-04-10T05:10:11.912Z,5.27
2019-04-10T05:12:43.182Z,5.28
2019-04-10T05:15:13.000Z,5.22
2019-04-10T05:17:42.438Z,5.30
2019-04-10T05:20:12.476Z,5.41
2019-04-10T05:22:41.974Z,5.37
2019-04-10T05:25:11.797Z,5.36
2019-04-10T05:27:41.407Z,5.33
2019-04-10T05:30:11.225Z,5.33
2019-04-10T05:32:41.787Z,5.36
2019-04-10T05:35:11.628Z,5.39
2019-04-10T05:37:41.211Z,5.41
2019-04-10T05:40:11.834Z,5.76
2019-04-10T05:42:41.644Z,5.90
2019-04-10T05:45:11.251Z,5.96
2019-04-10T05:47:40.763Z,6.20
2019-04-10T05:50:10.864Z,6.18
2019-04-10T05:52:40.341Z,6.24
2019-04-10T05:55:09.990Z,6.32
2019-04-10T05:57:40.565Z,6.37
2019-04-10T06:00:10.725Z,6.48
2019-04-10T06:02:40.317Z,6.68
2019-04-10T06:05:09.936Z,6.73
2019-04-10T06:07:39.431Z,6.94
2019-04-10T06:10:10.775Z,6.95
2019-04-10T06:12:40.446Z,7.05
2019-04-10T06:15:10.734Z,7.09
2019-04-10T06:17:40.695Z,7.36
2019-04-10T06:20:11.717Z,7.38
2019-04-10T06:22:41.307Z,7.55
2019-04-10T06:25:13.393Z,7.81
2019-04-10T06:27:43.032Z,7.87
2019-04-10T06:30:12.750Z,8.12
2019-04-10T06:32:43.255Z,8.33
2019-04-10T06:35:13.567Z,8.64
2019-04-10T06:37:43.126Z,9.04
2019-04-10T06:40:18.789Z,9.09
2019-04-10T06:42:49.804Z,9.49
2019-04-10T06:45:15.604Z,9.98
2019-04-10T06:47:45.180Z,9.76
2019-04-10T06:50:15.009Z,10.46
2019-04-10T06:52:45.055Z,10.36
2019-04-10T06:55:15.364Z,10.67
2019-04-10T06:57:50.844Z,11.29
2019-04-10T07:00:19.265Z,11.50
2019-04-10T07:02:49.195Z,10.82
2019-04-10T07:05:19.788Z,11.22
2019-04-10T07:07:53.594Z,11.63
2019-04-10T07:10:29.364Z,12.35
2019-04-10T07:12:51.912Z,13.15
2019-04-10T07:15:23.894Z,13.09
2019-04-10T07:17:53.438Z,13.88
2019-04-10T07:20:24.005Z,13.49
2019-04-10T07:22:53.596Z,14.24
2019-04-10T07:25:23.728Z,15.49
2019-04-10T07:27:54.364Z,14.97
2019-04-10T07:30:26.577Z,16.14
2019-04-10T07:32:55.331Z,16.61
2019-04-10T07:35:25.741Z,16.57
2019-04-10T07:37:56.947Z,16.06
2019-04-10T07:40:26.604Z,16.51
2019-04-10T07:42:56.727Z,17.13
2019-04-10T07:45:27.184Z,16.12
2019-04-10T07:47:56.980Z,15.14
2019-04-10T07:50:26.498Z,16.14
2019-04-10T07:52:56.018Z,15.89
2019-04-10T07:55:25.606Z,16.62
2019-04-10T07:57:55.275Z,16.69
2019-04-10T08:00:25.323Z,17.02
2019-04-10T08:02:57.480Z,17.94
2019-04-10T08:05:27.252Z,17.51
2019-04-10T08:07:57.543Z,17.79
2019-04-10T08:10:28.460Z,17.76
2019-04-10T08:12:58.210Z,17.11
2019-04-10T08:15:27.892Z,18.48
2019-04-10T08:17:58.307Z,18.46
2019-04-10T08:20:28.505Z,19.03
2019-04-10T08:22:58.022Z,18.82
2019-04-10T08:25:27.614Z,17.56
2019-04-10T08:27:57.089Z,16.82
2019-04-10T08:30:26.669Z,18.04
2019-04-10T08:33:00.786Z,18.75
2019-04-10T08:35:27.375Z,18.76
2019-04-10T08:37:57.049Z,19.65
2019-04-10T08:40:26.547Z,18.78
2019-04-10T08:42:56.064Z,16.89
2019-04-10T08:45:36.713Z,16.27
2019-04-10T08:47:57.293Z,16.61
2019-04-10T08:50:28.011Z,14.58
2019-04-10T08:52:57.920Z,14.65
2019-04-10T08:55:28.238Z,14.92
2019-04-10T08:57:58.603Z,15.04
2019-04-10T09:00:28.931Z,15.64
2019-04-10T09:02:58.543Z,16.15
2019-04-10T09:05:28.060Z,17.44
2019-04-10T09:07:57.616Z,18.03
2019-04-10T09:10:28.128Z,18.81
2019-04-10T09:12:57.904Z,19.90
2019-04-10T09:15:27.737Z,18.56
2019-04-10T09:17:57.707Z,18.93
2019-04-10T09:20:27.206Z,17.58
2019-04-10T09:23:17.765Z,18.29
2019-04-10T09:25:27.978Z,17.38
2019-04-10T09:27:57.987Z,17.74
2019-04-10T09:30:27.476Z,17.65
2019-04-10T09:32:57.110Z,16.57
2019-04-10T09:35:26.725Z,17.09
2019-04-10T09:37:56.650Z,16.97
2019-04-10T09:40:26.202Z,16.92
2019-04-10T09:42:55.690Z,17.72
2019-04-10T09:45:26.622Z,18.07
2019-04-10T09:47:56.196Z,17.34
2019-04-10T09:50:26.235Z,16.83
2019-04-10T09:52:56.589Z,17.41
2019-04-10T09:55:26.230Z,17.03
2019-04-10T09:57:57.228Z,17.27
2019-04-10T10:00:27.824Z,17.75
2019-04-10T10:02:57.545Z,18.48
2019-04-10T10:05:27.047Z,19.12
2019-04-10T10:07:56.543Z,18.99
2019-04-10T10:10:26.088Z,19.08
2019-04-10T10:12:55.631Z,19.31
2019-04-10T10:15:25.306Z,18.98
2019-04-10T10:17:55.056Z,20.68
2019-04-10T10:20:25.844Z,19.81
2019-04-10T10:22:55.746Z,21.03
2019-04-10T10:25:25.226Z,20.91
2019-04-10T10:27:54.822Z,21.06
2019-04-10T10:30:25.134Z,21.48
2019-04-10T10:32:54.691Z,21.88
2019-04-10T10:35:25.190Z,23.01
2019-04-10T10:37:54.886Z,21.98
2019-04-10T10:40:25.534Z,22.52
2019-04-10T10:42:56.074Z,23.54
2019-04-10T10:45:26.914Z,22.06
2019-04-10T10:47:56.773Z,21.32
2019-04-10T10:50:26.356Z,20.69
2019-04-10T10:52:55.826Z,20.86
2019-04-10T10:55:25.452Z,20.04
2019-04-10T10:57:55.429Z,21.01
2019-04-10T11:00:25.246Z,21.85
2019-04-10T11:02:55.968Z,20.23
2019-04-10T11:05:25.565Z,20.50
2019-04-10T11:07:55.829Z,20.67
2019-04-10T11:10:27.514Z,21.59
2019-04-10T11:12:58.374Z,20.55
2019-04-10T11:15:28.036Z,20.44
2019-04-10T11:17:57.847Z,20.81
2019-04-10T11:20:28.083Z,20.56
2019-04-10T11:22:57.892Z,20.63
2019-04-10T11:25:28.614Z,20.81
2019-04-10T11:27:58.454Z,20.51
2019-04-10T11:30:28.748Z,20.44
2019-04-10T11:32:58.373Z,21.30
2019-04-10T11:35:29.023Z,21.82
2019-04-10T11:38:00.605Z,21.21
2019-04-10T11:40:31.666Z,21.65
2019-04-10T11:43:03.885Z,21.91
2019-04-10T11:45:40.907Z,21.58
2019-04-10T11:48:04.744Z,21.50
2019-04-10T11:50:35.984Z,20.65
2019-04-10T11:53:07.083Z,21.22
2019-04-10T11:55:44.949Z,22.09
2019-04-10T11:58:11.332Z,21.08
2019-04-10T12:03:15.980Z,20.75
2019-04-10T12:05:48.331Z,20.56
2019-04-10T12:08:36.288Z,21.57
2019-04-10T12:13:20.005Z,21.50
2019-04-10T12:15:50.494Z,21.48
2019-04-10T12:18:20.051Z,20.89
2019-04-10T12:20:49.619Z,20.60
2019-04-10T12:23:19.176Z,21.51
2019-04-10T12:25:49.378Z,21.30
2019-04-10T12:28:20.057Z,20.81
2019-04-10T12:30:49.671Z,20.60
2019-04-10T12:33:19.198Z,20.94
2019-04-10T12:35:49.882Z,21.40
2019-04-10T12:38:19.540Z,21.23
2019-04-10T12:40:49.038Z,21.69
2019-04-10T12:43:18.778Z,20.65
2019-04-10T12:45:48.646Z,19.87
2019-04-10T12:48:18.777Z,20.49
2019-04-10T12:50:49.424Z,20.16
2019-04-10T12:53:19.171Z,20.90
2019-04-10T12:55:49.432Z,20.96
2019-04-10T12:58:19.585Z,21.23
2019-04-10T13:00:52.169Z,20.58
2019-04-10T13:03:22.965Z,20.09
2019-04-10T13:05:53.606Z,21.29
2019-04-10T13:08:31.159Z,21.77
2019-04-10T13:10:54.541Z,20.94
2019-04-10T13:13:24.303Z,20.57
2019-04-10T13:15:54.128Z,20.06
2019-04-10T13:18:24.663Z,19.65
2019-04-10T13:20:54.497Z,19.57
2019-04-10T13:23:24.643Z,19.67
2019-04-10T13:25:59.812Z,18.86
2019-04-10T13:28:25.597Z,18.95
2019-04-10T13:30:56.655Z,19.49
2019-04-10T13:33:26.733Z,19.71
2019-04-10T13:35:57.522Z,19.70
2019-04-10T13:38:32.678Z,19.85
2019-04-10T13:40:58.481Z,20.46
2019-04-10T13:43:28.005Z,19.65
2019-04-10T13:45:57.625Z,20.00
2019-04-10T13:48:27.192Z,19.72
2019-04-10T13:50:57.121Z,19.88
2019-04-10T13:53:26.662Z,19.19
2019-04-10T13:55:56.906Z,19.58
2019-04-10T13:58:27.851Z,19.46
2019-04-10T14:00:58.661Z,19.97
2019-04-10T14:03:28.392Z,20.05
2019-04-10T14:05:57.992Z,19.61
2019-04-10T14:08:40.308Z,19.47
2019-04-10T14:10:58.851Z,20.18
2019-04-10T14:13:29.557Z,19.82
2019-04-10T14:16:00.174Z,19.78
2019-04-10T14:18:29.699Z,19.69
2019-04-10T14:21:03.322Z,20.32
2019-04-10T14:23:33.207Z,19.73
2019-04-10T14:26:04.580Z,19.50
2019-04-10T14:28:35.450Z,19.55
2019-04-10T14:31:12.799Z,19.15
2019-04-10T14:33:42.320Z,18.85
2019-04-10T14:36:11.869Z,18.69
2019-04-10T14:38:41.428Z,18.82
2019-04-10T14:41:11.605Z,18.16
2019-04-10T14:43:43.005Z,18.27
2019-04-10T14:46:12.454Z,19.08
2019-04-10T14:48:42.483Z,19.04
2019-04-10T14:51:12.330Z,19.61
2019-04-10T14:53:41.779Z,19.62
2019-04-10T14:56:12.145Z,19.16
2019-04-10T14:58:42.365Z,19.89
2019-04-10T15:01:12.032Z,19.92
2019-04-10T15:03:41.591Z,19.78
2019-04-10T15:06:11.518Z,20.07
2019-04-10T15:08:41.826Z,19.57
2019-04-10T15:11:11.403Z,19.85
2019-04-10T15:13:40.959Z,19.30
2019-04-10T15:16:10.558Z,19.39
2019-04-10T15:18:40.052Z,18.41
2019-04-10T15:21:10.300Z,18.14
2019-04-10T15:23:39.804Z,17.54
2019-04-10T15:26:09.445Z,16.94
2019-04-10T15:28:39.475Z,16.37
2019-04-10T15:31:09.109Z,16.69
2019-04-10T15:33:39.397Z,16.99
2019-04-10T15:36:09.416Z,18.02
2019-04-10T15:38:38.999Z,17.80
2019-04-10T15:41:08.548Z,17.90
2019-04-10T15:43:38.128Z,18.00
2019-04-10T15:46:08.675Z,17.45
2019-04-10T15:48:38.302Z,16.78
2019-04-10T15:51:07.802Z,15.93
2019-04-10T15:53:37.389Z,16.19
2019-04-10T15:56:07.069Z,16.49
2019-04-10T15:58:36.666Z,16.65
2019-04-10T16:01:07.969Z,16.38
2019-04-10T16:03:38.634Z,16.61
2019-04-10T16:06:08.454Z,16.70
2019-04-10T16:08:39.263Z,16.70
2019-04-10T16:11:25.779Z,17.08
2019-04-10T16:13:57.030Z,16.95
2019-04-10T16:16:40.351Z,17.55
2019-04-10T16:19:11.959Z,17.08
2019-04-10T16:21:41.561Z,16.46
2019-04-10T16:24:12.301Z,16.23
2019-04-10T16:26:41.824Z,15.94
2019-04-10T16:29:11.707Z,15.67
2019-04-10T16:31:41.298Z,14.95
2019-04-10T16:34:10.882Z,14.78
2019-04-10T16:36:41.661Z,14.55
2019-04-10T16:39:13.459Z,14.48
2019-04-10T16:41:43.992Z,14.42
2019-04-10T16:44:14.860Z,14.44
2019-04-10T16:46:45.179Z,14.42
2019-04-10T16:49:14.824Z,14.21
2019-04-10T16:51:44.768Z,14.15
2019-04-10T16:54:14.291Z,13.94
2019-04-10T16:56:43.803Z,14.02
2019-04-10T16:59:14.223Z,14.00
2019-04-10T17:01:44.853Z,13.99
2019-04-10T17:04:14.732Z,14.10
2019-04-10T17:06:44.272Z,13.85
2019-04-10T17:09:16.554Z,14.16
2019-04-10T17:11:47.281Z,13.93
2019-04-10T17:14:17.481Z,13.60
2019-04-10T17:16:48.121Z,13.08
2019-04-10T17:19:17.815Z,13.18
2019-04-10T17:21:47.294Z,13.09
2019-04-10T17:24:17.417Z,13.03
2019-04-10T17:26:47.004Z,13.00
2019-04-10T17:29:16.747Z,12.67
2019-04-10T17:31:47.343Z,12.50
2019-04-10T17:34:16.880Z,12.48
2019-04-10T17:36:47.347Z,12.38
2019-04-10T17:39:19.513Z,12.19
2019-04-10T17:41:52.275Z,12.05
2019-04-10T17:44:23.402Z,11.95
2019-04-10T17:46:53.374Z,11.91
2019-04-10T17:49:23.849Z,11.88
2019-04-10T17:51:54.562Z,11.81
2019-04-10T17:54:25.082Z,11.74
2019-04-10T17:56:54.949Z,11.66
2019-04-10T17:59:24.733Z,11.40
2019-04-10T18:01:56.938Z,11.39
2019-04-10T18:04:26.916Z,11.24
2019-04-10T18:06:57.508Z,11.10
2019-04-10T18:09:27.795Z,11.02
2019-04-10T18:12:00.397Z,10.92
2019-04-10T18:14:29.136Z,11.00
2019-04-10T18:16:58.750Z,10.83
2019-04-10T18:19:28.343Z,10.81
2019-04-10T18:21:58.376Z,10.82
2019-04-10T18:24:28.481Z,10.65
2019-04-10T18:26:59.713Z,10.59
2019-04-10T18:29:30.939Z,10.45
2019-04-10T18:32:02.106Z,10.49
2019-04-10T18:34:33.251Z,10.61
2019-04-10T18:37:04.419Z,10.51
2019-04-10T18:39:34.637Z,10.51
2019-04-10T18:42:05.524Z,10.31
2019-04-10T18:44:35.279Z,10.24
2019-04-10T18:47:04.989Z,10.19
2019-04-10T18:49:34.445Z,10.24
2019-04-10T18:52:05.286Z,10.20
2019-04-10T18:54:36.000Z,10.00
2019-04-10T18:57:05.671Z,9.93
2019-04-10T18:59:39.276Z,9.94
2019-04-10T19:02:10.396Z,9.99
2019-04-10T19:04:41.558Z,9.78
2019-04-10T19:07:11.248Z,9.81
2019-04-10T19:09:41.114Z,9.73
2019-04-10T19:12:10.824Z,9.59
2019-04-10T19:14:40.672Z,9.59
2019-04-10T19:17:10.954Z,9.51
2019-04-10T19:19:42.377Z,9.43
2019-04-10T19:22:13.657Z,9.63
2019-04-10T19:24:44.102Z,9.47
2019-04-10T19:27:13.912Z,9.51
2019-04-10T19:29:43.815Z,9.42
2019-04-10T19:32:16.073Z,9.46
2019-04-10T19:34:45.808Z,9.62
2019-04-10T19:37:16.334Z,9.55
2019-04-10T19:39:46.674Z,9.65
2019-04-10T19:42:17.363Z,9.56
2019-04-10T19:44:47.629Z,9.61
2019-04-10T19:47:17.953Z,9.46
2019-04-10T19:49:48.656Z,9.29
2019-04-10T19:52:18.213Z,9.14
2019-04-10T19:54:47.826Z,9.22
2019-04-10T19:57:17.332Z,9.19
2019-04-10T19:59:47.102Z,9.09
2019-04-10T20:02:17.713Z,9.02
2019-04-10T20:04:48.430Z,9.03
2019-04-10T20:07:18.587Z,9.13
2019-04-10T20:09:48.555Z,9.13
2019-04-10T20:12:18.634Z,9.14
2019-04-10T20:14:48.501Z,9.07
2019-04-10T20:17:18.017Z,9.06
2019-04-10T20:19:48.806Z,9.05
2019-04-10T20:22:18.825Z,8.92
2019-04-10T20:24:50.157Z,8.79
2019-04-10T20:27:20.242Z,8.76
2019-04-10T20:29:51.030Z,8.78
2019-04-10T20:32:21.780Z,8.77
2019-04-10T20:34:51.784Z,8.59
2019-04-10T20:37:21.351Z,8.54
2019-04-10T20:39:51.741Z,8.69
2019-04-10T20:42:22.499Z,8.53
2019-04-10T20:44:53.362Z,8.57
2019-04-10T20:47:23.030Z,8.51
2019-04-10T20:49:53.336Z,8.39
2019-04-10T20:52:23.071Z,8.39
2019-04-10T20:54:53.124Z,8.32
2019-04-10T20:57:23.549Z,8.35
2019-04-10T20:59:53.291Z,8.20
2019-04-10T21:02:22.833Z,7.98
2019-04-10T21:04:59.550Z,7.88
2019-04-10T21:07:23.627Z,7.85
2019-04-10T21:09:54.387Z,7.93
2019-04-10T21:12:23.997Z,7.76
2019-04-10T21:14:54.638Z,7.63
2019-04-10T21:17:24.855Z,7.73
2019-04-10T21:19:54.452Z,7.92
2019-04-10T21:22:24.457Z,7.81
2019-04-10T21:24:54.181Z,7.77
2019-04-10T21:27:23.627Z,7.81
2019-04-10T21:30:01.753Z,7.63
2019-04-10T21:32:36.045Z,7.55
2019-04-10T21:35:09.523Z,7.50
2019-04-10T21:37:40.237Z,7.42
2019-04-10T21:40:10.200Z,7.33
2019-04-10T21:42:39.679Z,7.06
2019-04-10T21:45:09.636Z,7.20
2019-04-10T21:47:39.159Z,7.23
2019-04-10T21:50:10.940Z,7.10
2019-04-10T21:52:41.378Z,6.91
2019-04-10T21:55:11.130Z,6.82
2019-04-10T21:57:40.632Z,6.73
2019-04-10T22:00:12.159Z,6.67
2019-04-10T22:02:42.146Z,6.68
2019-04-10T22:05:12.688Z,6.57
2019-04-10T22:07:48.250Z,6.50
2019-04-10T22:10:32.111Z,6.62
2019-04-10T22:13:01.761Z,6.84
2019-04-10T22:15:35.896Z,6.81
2019-04-10T22:18:07.150Z,6.66
2019-04-10T22:20:36.889Z,6.62
2019-04-10T22:23:07.485Z,6.54
2019-04-10T22:25:37.415Z,6.67
2019-04-10T22:28:06.991Z,6.69
2019-04-10T22:30:37.201Z,6.69
2019-04-10T22:33:07.652Z,6.52
2019-04-10T22:35:37.265Z,6.68
2019-04-10T22:38:06.835Z,6.46
2019-04-10T22:40:36.403Z,6.40
2019-04-10T22:43:05.962Z,6.32
2019-04-10T22:45:36.039Z,6.23
2019-04-10T22:48:06.252Z,6.19
2019-04-10T22:50:36.468Z,6.03
2019-04-10T22:53:06.853Z,6.27
2019-04-10T22:55:36.397Z,6.13
2019-04-10T22:58:06.023Z,6.20
2019-04-10T23:00:35.561Z,6.14
2019-04-10T23:03:05.738Z,5.93
2019-04-10T23:05:36.498Z,5.81
2019-04-10T23:08:07.336Z,5.62
2019-04-10T23:10:37.255Z,5.73
2019-04-10T23:13:07.534Z,5.74
2019-04-10T23:15:38.001Z,5.62
2019-04-10T23:18:07.664Z,5.58
2019-04-10T23:20:37.111Z,5.75
2019-04-10T23:23:06.672Z,5.68
2019-04-10T23:25:37.392Z,5.52
2019-04-10T23:28:07.465Z,5.45
2019-04-10T23:30:37.257Z,5.36
2019-04-10T23:33:07.958Z,5.26
2019-04-10T23:35:37.948Z,5.13
2019-04-10T23:38:07.579Z,5.22
2019-04-10T23:40:37.045Z,5.16
2019-04-10T23:43:12.992Z,5.11
2019-04-10T23:45:37.909Z,5.20
2019-04-10T23:48:08.659Z,5.22
2019-04-10T23:50:38.621Z,5.18
2019-04-10T23:53:08.638Z,5.19
2019-04-10T23:55:38.185Z,5.07
2019-04-10T23:58:07.779Z,5.17
